Time;durP1;ratioP1;P1;durP2;ratioP2;P2;SDS_P1;SDS_P2;PMS_P1;PMS_P2;Temp;Humidity;BMP_temperature;BMP_pressure;BME280_temperature;BME280_humidity;BME280_pressure;Samples;Min_cycle;Max_cycle;Signal;HPM_P1;HPM_P2
2023/07/08 00:00:45;;;;;;;10.77;4.72;;;;;;;24.98;66.21;100399.69;5112924;28;20063;-86
2023/07/08 00:03:11;;;;;;;12.02;5.20;;;;;;;24.92;66.55;100395.88;5094315;28;20099;-85
2023/07/08 00:05:36;;;;;;;12.98;5.47;;;;;;;24.91;66.83;100390.63;5114032;28;20028;-85
2023/07/08 00:08:03;;;;;;;7.63;5.10;;;;;;;24.94;67.04;100390.16;5114126;28;20530;-85
2023/07/08 00:10:30;;;;;;;7.93;5.50;;;;;;;24.86;67.26;100384.97;5114992;28;20024;-86
2023/07/08 00:12:58;;;;;;;8.48;5.32;;;;;;;24.85;67.56;100400.63;5116024;28;20080;-85
2023/07/08 00:15:28;;;;;;;11.02;5.38;;;;;;;24.84;67.68;100401.66;5130717;28;20023;-82
2023/07/08 00:17:54;;;;;;;12.77;5.70;;;;;;;24.75;67.67;100386.47;5121413;28;20024;-84
2023/07/08 00:20:28;;;;;;;11.27;4.72;;;;;;;24.73;67.81;100385.84;5109779;28;20091;-84
2023/07/08 00:22:55;;;;;;;10.32;5.13;;;;;;;24.80;67.97;100407.78;5093647;28;20029;-85
2023/07/08 00:25:20;;;;;;;10.68;5.43;;;;;;;24.62;67.75;100381.06;5093520;28;20028;-85
2023/07/08 00:27:47;;;;;;;12.25;5.07;;;;;;;24.48;68.15;100390.47;5092906;28;20089;-84
2023/07/08 00:30:18;;;;;;;10.98;5.93;;;;;;;24.55;68.66;100416.03;5093011;28;20399;-84
2023/07/08 00:32:44;;;;;;;13.68;5.28;;;;;;;24.47;68.55;100397.03;5092207;28;20028;-85
2023/07/08 00:35:09;;;;;;;8.63;5.40;;;;;;;24.58;68.59;100414.75;5090564;28;20028;-85
2023/07/08 00:37:34;;;;;;;6.20;5.25;;;;;;;24.39;68.38;100383.53;5100468;28;20015;-84
2023/07/08 00:40:00;;;;;;;8.50;5.80;;;;;;;24.38;68.54;100392.84;5117531;28;20412;-84
2023/07/08 00:42:25;;;;;;;9.40;5.05;;;;;;;24.45;68.91;100426.66;5118987;28;20102;-84
2023/07/08 00:44:51;;;;;;;11.02;5.70;;;;;;;24.36;68.69;100400.47;5118854;28;20059;-85
2023/07/08 00:47:17;;;;;;;8.35;4.57;;;;;;;24.42;68.63;100413.34;5082636;28;20039;-84
2023/07/08 00:49:52;;;;;;;11.68;5.25;;;;;;;24.30;68.92;100393.09;5097468;28;20031;-85
2023/07/08 00:52:26;;;;;;;9.10;5.68;;;;;;;24.37;69.07;100403.00;5094060;28;20024;-84
2023/07/08 00:55:02;;;;;;;13.30;5.15;;;;;;;24.30;69.35;100417.84;5096490;28;20107;-84
2023/07/08 00:57:31;;;;;;;8.70;5.07;;;;;;;24.25;69.26;100409.41;5095016;28;20111;-83
2023/07/08 01:00:04;;;;;;;9.73;4.63;;;;;;;24.16;69.39;100405.22;5096330;28;20453;-85
2023/07/08 01:02:34;;;;;;;9.57;5.13;;;;;;;24.11;69.47;100402.28;5098568;28;20028;-86
2023/07/08 01:05:14;;;;;;;8.63;4.95;;;;;;;24.14;69.73;100412.84;5094550;28;20024;-83
2023/07/08 01:07:43;;;;;;;7.82;5.10;;;;;;;24.01;69.75;100402.72;5049077;28;20056;-85
2023/07/08 01:10:13;;;;;;;8.18;5.85;;;;;;;23.85;69.84;100368.31;5058143;28;20047;-85
2023/07/08 01:12:45;;;;;;;5.20;4.70;;;;;;;24.06;69.80;100402.94;5055152;28;20041;-86
2023/07/08 01:15:10;;;;;;;15.43;5.60;;;;;;;23.82;70.24;100382.50;5061184;28;20056;-85
2023/07/08 01:17:37;;;;;;;12.30;5.60;;;;;;;23.93;70.07;100396.63;5068515;28;20040;-83
2023/07/08 01:20:13;;;;;;;8.43;4.85;;;;;;;23.78;70.20;100375.78;5066943;28;20028;-86
2023/07/08 01:22:40;;;;;;;9.45;5.85;;;;;;;23.79;70.61;100395.84;5059548;28;20150;-88
2023/07/08 01:25:07;;;;;;;14.13;4.60;;;;;;;23.71;70.20;100390.56;5052424;28;20037;-85
2023/07/08 01:27:35;;;;;;;14.40;4.82;;;;;;;23.74;70.39;100396.47;5041937;28;20044;-86
2023/07/08 01:30:02;;;;;;;11.15;5.63;;;;;;;23.79;70.12;100404.91;5052038;28;20190;-86
2023/07/08 01:32:28;;;;;;;5.82;4.93;;;;;;;23.73;70.27;100389.28;5051332;28;20029;-85
2023/07/08 01:35:01;;;;;;;5.03;4.47;;;;;;;23.58;70.37;100368.63;5047552;28;20048;-85
2023/07/08 01:37:35;;;;;;;5.57;4.88;;;;;;;23.67;70.50;100420.34;5046794;28;20029;-85
2023/07/08 01:40:19;;;;;;;9.88;4.90;;;;;;;23.72;70.76;100428.81;5099116;28;20051;-83
2023/07/08 01:42:44;;;;;;;8.38;5.20;;;;;;;23.69;70.41;100409.16;5112154;28;20034;-84
2023/07/08 01:45:12;;;;;;;8.27;5.60;;;;;;;23.63;70.60;100415.53;5111601;28;20106;-86
2023/07/08 01:47:38;;;;;;;6.95;5.13;;;;;;;23.62;70.69;100406.44;5111317;28;20034;-86
2023/07/08 01:50:03;;;;;;;10.40;6.93;;;;;;;23.46;71.12;100403.28;5111323;28;20035;-84
2023/07/08 01:52:29;;;;;;;5.85;5.20;;;;;;;23.46;71.23;100397.78;5092531;28;20019;-84
2023/07/08 01:54:55;;;;;;;6.72;5.55;;;;;;;23.41;71.45;100384.72;5105942;28;20398;-86
2023/07/08 01:57:20;;;;;;;8.60;5.15;;;;;;;23.43;71.75;100396.31;5109977;28;20075;-85
2023/07/08 01:59:47;;;;;;;8.35;5.22;;;;;;;23.28;72.17;100382.81;5091238;28;20035;-85
2023/07/08 02:02:12;;;;;;;14.23;5.82;;;;;;;23.19;72.79;100375.00;5094231;28;20028;-84
2023/07/08 02:04:38;;;;;;;11.70;5.90;;;;;;;23.28;72.46;100390.19;5109458;28;20053;-85
2023/07/08 02:07:04;;;;;;;20.35;5.50;;;;;;;23.29;72.30;100392.75;5110239;28;20118;-85
2023/07/08 02:09:30;;;;;;;10.02;6.00;;;;;;;23.23;72.63;100381.78;5109791;28;20080;-86
2023/07/08 02:11:56;;;;;;;14.35;5.60;;;;;;;23.22;72.65;100394.63;5110002;28;20019;-85
2023/07/08 02:14:21;;;;;;;12.32;4.95;;;;;;;23.15;72.78;100396.53;5092207;28;20115;-85
2023/07/08 02:16:47;;;;;;;10.23;5.45;;;;;;;23.11;72.95;100388.97;5111488;28;20035;-85
2023/07/08 02:19:13;;;;;;;9.60;6.07;;;;;;;23.08;73.21;100403.94;5110249;28;20055;-87
2023/07/08 02:21:38;;;;;;;6.13;5.15;;;;;;;23.12;73.19;100396.97;5110611;28;20114;-85
2023/07/08 02:24:05;;;;;;;10.90;5.88;;;;;;;22.98;73.13;100378.81;5092499;28;20042;-85
2023/07/08 02:26:32;;;;;;;7.90;5.55;;;;;;;22.98;73.58;100383.47;5112595;28;20031;-84
2023/07/08 02:28:58;;;;;;;6.75;5.55;;;;;;;22.89;73.42;100373.75;5112691;28;20115;-85
2023/07/08 02:31:24;;;;;;;11.98;6.22;;;;;;;22.83;72.93;100356.25;5113431;28;20050;-84
2023/07/08 02:33:50;;;;;;;9.90;5.30;;;;;;;22.93;73.26;100362.16;5109146;28;20028;-85
2023/07/08 02:36:15;;;;;;;9.13;5.15;;;;;;;22.87;73.24;100370.41;5103128;28;20032;-84
2023/07/08 02:38:41;;;;;;;10.20;6.03;;;;;;;22.86;73.39;100374.19;5092021;28;20020;-84
2023/07/08 02:41:06;;;;;;;10.02;5.57;;;;;;;22.84;73.21;100362.59;5112403;28;20122;-85
2023/07/08 02:43:32;;;;;;;14.27;5.97;;;;;;;22.82;73.35;100373.75;5112190;28;20016;-85
2023/07/08 02:45:57;;;;;;;7.47;5.25;;;;;;;22.84;73.03;100365.34;5112665;28;20041;-84
2023/07/08 02:48:23;;;;;;;5.93;5.00;;;;;;;22.90;72.80;100372.72;5113224;28;20015;-84
2023/07/08 02:50:48;;;;;;;17.23;5.43;;;;;;;22.92;72.91;100382.41;5112939;28;20168;-84
2023/07/08 02:53:13;;;;;;;7.15;4.97;;;;;;;22.85;72.67;100367.84;5110674;28;20020;-84
2023/07/08 02:55:42;;;;;;;11.45;5.05;;;;;;;22.87;72.37;100357.53;5112040;28;20024;-85
2023/07/08 02:58:09;;;;;;;7.47;4.95;;;;;;;22.93;72.69;100372.28;5110056;28;20047;-85
2023/07/08 03:00:37;;;;;;;14.98;5.65;;;;;;;22.87;72.24;100359.44;5112034;28;20024;-84
2023/07/08 03:03:03;;;;;;;7.15;5.65;;;;;;;22.92;72.47;100384.31;5112545;28;20503;-84
2023/07/08 03:05:30;;;;;;;5.68;4.47;;;;;;;22.85;72.53;100384.31;5112257;28;20077;-86
2023/07/08 03:07:56;;;;;;;4.95;4.45;;;;;;;22.94;72.35;100376.69;5093262;28;20051;-85
2023/07/08 03:10:21;;;;;;;11.75;5.40;;;;;;;22.89;72.08;100379.25;5113147;28;20440;-84
2023/07/08 03:12:47;;;;;;;9.85;5.40;;;;;;;22.92;71.87;100389.78;5112132;28;20076;-85
2023/07/08 03:15:12;;;;;;;10.57;5.18;;;;;;;22.84;72.15;100384.53;5111552;28;20119;-85
2023/07/08 03:17:38;;;;;;;8.25;5.18;;;;;;;22.94;72.16;100404.97;5111367;28;20022;-84
2023/07/08 03:20:05;;;;;;;9.98;5.28;;;;;;;22.87;72.18;100408.78;5110172;28;20034;-86
2023/07/08 03:22:31;;;;;;;16.33;4.68;;;;;;;22.87;72.49;100411.53;5108710;28;20020;-84
2023/07/08 03:24:56;;;;;;;13.60;5.32;;;;;;;22.84;72.36;100410.06;5091300;28;20032;-84
2023/07/08 03:27:22;;;;;;;8.95;5.53;;;;;;;22.76;72.00;100380.94;5108871;28;20024;-84
2023/07/08 03:29:47;;;;;;;11.57;5.68;;;;;;;22.93;71.54;100397.81;5109281;28;20481;-86
2023/07/08 03:32:13;;;;;;;12.30;4.75;;;;;;;22.95;71.60;100409.41;5091979;28;20625;-85
2023/07/08 03:34:38;;;;;;;14.70;5.72;;;;;;;22.98;71.83;100395.28;5110883;28;20051;-86
2023/07/08 03:37:05;;;;;;;13.35;5.38;;;;;;;23.02;71.50;100402.06;5102246;28;20024;-85
2023/07/08 03:39:34;;;;;;;9.55;5.80;;;;;;;22.93;71.34;100386.84;5096681;28;20048;-86
2023/07/08 03:41:59;;;;;;;7.88;5.20;;;;;;;23.09;71.43;100402.03;5090375;28;20047;-86
2023/07/08 03:44:25;;;;;;;10.02;4.88;;;;;;;23.16;70.75;100408.38;5089318;28;20476;-86
2023/07/08 03:46:50;;;;;;;10.25;4.97;;;;;;;23.20;70.41;100406.88;5092591;28;20015;-85
2023/07/08 03:49:21;;;;;;;8.30;5.47;;;;;;;23.19;70.23;100418.91;5109309;28;20051;-86
2023/07/08 03:51:47;;;;;;;13.20;6.40;;;;;;;23.03;69.98;100406.47;5108916;28;20024;-86
2023/07/08 03:54:14;;;;;;;18.48;6.53;;;;;;;23.13;70.03;100411.53;5106478;28;20039;-85
2023/07/08 03:56:40;;;;;;;11.68;5.72;;;;;;;23.18;69.92;100419.97;5112449;28;20024;-93
2023/07/08 03:59:05;;;;;;;12.88;5.22;;;;;;;23.06;69.76;100418.91;5085116;28;20048;-91
2023/07/08 04:01:31;;;;;;;14.60;5.75;;;;;;;23.08;70.52;100427.78;5063465;28;20036;-83
2023/07/08 04:03:59;;;;;;;9.70;5.15;;;;;;;23.24;70.17;100454.78;5085756;28;20048;-88
2023/07/08 04:06:25;;;;;;;13.75;5.10;;;;;;;23.28;69.98;100456.06;5069595;28;20039;-85
2023/07/08 04:08:51;;;;;;;9.25;5.70;;;;;;;23.37;69.96;100457.53;5067799;28;20040;-85
2023/07/08 04:11:19;;;;;;;17.55;6.10;;;;;;;23.51;69.38;100466.66;5052934;28;20032;-83
2023/07/08 04:13:45;;;;;;;16.70;5.80;;;;;;;23.61;68.79;100456.91;5069551;28;20056;-86
2023/07/08 04:16:20;;;;;;;12.32;5.50;;;;;;;23.58;68.23;100445.50;5069362;28;20029;-84
2023/07/08 04:18:45;;;;;;;14.98;5.93;;;;;;;23.67;68.27;100455.19;5070892;28;20623;-87
2023/07/08 04:21:11;;;;;;;21.77;7.68;;;;;;;23.79;68.56;100461.75;5069912;28;20032;-88
2023/07/08 04:23:37;;;;;;;11.40;6.07;;;;;;;23.87;68.18;100460.66;5052336;28;20032;-87
2023/07/08 04:26:02;;;;;;;12.23;6.85;;;;;;;23.83;68.45;100443.78;5069044;28;20109;-88
2023/07/08 04:28:27;;;;;;;15.35;7.13;;;;;;;23.89;68.06;100455.78;5052346;28;20028;-88
2023/07/08 04:30:53;;;;;;;10.55;5.80;;;;;;;23.77;68.87;100437.25;5081622;28;20043;-88
2023/07/08 04:33:18;;;;;;;17.83;8.73;;;;;;;23.80;68.52;100428.56;5092718;28;20085;-88
2023/07/08 04:35:45;;;;;;;29.15;7.30;;;;;;;23.98;68.17;100438.88;5074996;28;20016;-88
2023/07/08 04:38:13;;;;;;;14.15;7.93;;;;;;;24.08;68.00;100435.66;5097670;28;20024;-89
2023/07/08 04:40:39;;;;;;;14.95;6.45;;;;;;;24.08;67.22;100441.16;5063026;28;20119;-88
2023/07/08 04:43:10;;;;;;;10.88;6.38;;;;;;;24.13;66.96;100450.47;5104331;28;20031;-89
2023/07/08 04:45:37;;;;;;;11.20;7.07;;;;;;;24.15;66.74;100442.03;5099162;28;20568;-89
2023/07/08 04:48:08;;;;;;;12.55;6.30;;;;;;;24.13;66.63;100449.63;5113873;28;20023;-89
2023/07/08 04:50:35;;;;;;;14.10;7.10;;;;;;;24.11;66.16;100429.75;5106792;28;20092;-88
2023/07/08 04:53:02;;;;;;;13.48;7.32;;;;;;;24.21;66.21;100432.91;5102260;28;20019;-89
2023/07/08 04:55:28;;;;;;;8.80;6.75;;;;;;;24.17;66.19;100432.50;5106598;28;20100;-87
2023/07/08 04:57:53;;;;;;;16.08;8.32;;;;;;;24.26;65.89;100419.34;5103973;28;20035;-86
2023/07/08 05:00:19;;;;;;;17.35;7.72;;;;;;;24.21;66.25;100452.16;5119827;28;20024;-87
2023/07/08 05:02:45;;;;;;;15.07;6.88;;;;;;;24.14;65.70;100429.34;5091857;28;20034;-88
2023/07/08 05:05:11;;;;;;;13.98;7.63;;;;;;;24.12;65.51;100439.72;5095759;28;20452;-88
2023/07/08 05:07:36;;;;;;;10.32;6.50;;;;;;;23.98;65.71;100419.63;5116077;28;20042;-88
2023/07/08 05:10:02;;;;;;;23.27;7.93;;;;;;;23.98;65.97;100419.63;5113746;28;20034;-87
2023/07/08 05:12:28;;;;;;;14.73;7.85;;;;;;;23.92;65.76;100397.66;5113995;28;20111;-88
2023/07/08 05:14:53;;;;;;;17.85;7.30;;;;;;;24.00;65.86;100413.94;5112558;28;20464;-89
2023/07/08 05:17:19;;;;;;;10.35;6.60;;;;;;;23.91;66.13;100418.84;5111464;28;20041;-90
2023/07/08 05:19:45;;;;;;;17.10;6.82;;;;;;;23.82;66.20;100396.22;5111520;28;20019;-88
2023/07/08 05:22:11;;;;;;;14.77;8.27;;;;;;;23.84;66.53;100407.00;5110001;28;20019;-89
2023/07/08 05:24:37;;;;;;;13.88;7.05;;;;;;;23.84;65.64;100391.38;5107267;28;20045;-88
2023/07/08 05:27:03;;;;;;;12.55;7.28;;;;;;;23.93;65.25;100415.84;5092484;28;20024;-86
2023/07/08 05:29:29;;;;;;;16.40;7.63;;;;;;;23.89;65.23;100401.69;5105931;28;20163;-88
2023/07/08 05:31:55;;;;;;;13.15;7.15;;;;;;;23.81;65.22;100389.06;5093531;28;20483;-88
2023/07/08 05:34:20;;;;;;;19.90;6.45;;;;;;;23.85;65.10;100415.03;5092513;28;20026;-89
2023/07/08 05:36:46;;;;;;;22.73;7.05;;;;;;;23.79;65.05;100393.91;5092606;28;20051;-89
2023/07/08 05:39:12;;;;;;;22.88;6.88;;;;;;;23.78;64.98;100391.41;5113081;28;20039;-90
2023/07/08 05:41:37;;;;;;;28.55;7.65;;;;;;;23.74;64.91;100410.22;5127149;28;20019;-89
2023/07/08 05:44:03;;;;;;;20.58;6.53;;;;;;;23.81;64.92;100413.78;5133984;28;20028;-89
2023/07/08 05:46:28;;;;;;;24.45;7.30;;;;;;;23.89;64.75;100428.31;5124606;28;20050;-88
2023/07/08 05:48:54;;;;;;;37.95;8.38;;;;;;;23.84;64.60;100424.34;5112817;28;20023;-88
2023/07/08 05:51:19;;;;;;;18.63;6.88;;;;;;;23.85;64.71;100426.00;5112609;28;20137;-88
2023/07/08 05:53:45;;;;;;;13.32;6.78;;;;;;;23.84;64.76;100420.75;5118484;28;20398;-87
2023/07/08 05:56:10;;;;;;;16.67;7.30;;;;;;;23.73;64.51;100408.50;5092850;28;20028;-89
2023/07/08 05:58:36;;;;;;;22.55;7.75;;;;;;;23.69;65.00;100426.50;5094501;28;20030;-87
2023/07/08 06:01:01;;;;;;;21.85;7.07;;;;;;;23.76;64.68;100405.34;5096066;28;20123;-90
2023/07/08 06:03:27;;;;;;;13.70;7.28;;;;;;;23.88;64.72;100419.25;5112751;28;20030;-87
2023/07/08 06:05:52;;;;;;;15.23;6.75;;;;;;;23.89;64.09;100404.44;5111182;28;20031;-86
2023/07/08 06:08:18;;;;;;;29.40;6.35;;;;;;;23.87;63.46;100392.00;5094935;28;20056;-91
2023/07/08 06:10:45;;;;;;;10.85;5.85;;;;;;;23.90;63.62;100411.63;5096600;28;20110;-87
2023/07/08 06:13:12;;;;;;;18.92;6.05;;;;;;;24.02;63.31;100431.03;5119794;28;20059;-86
2023/07/08 06:15:38;;;;;;;13.65;5.93;;;;;;;24.05;62.99;100420.47;5121104;28;20027;-78
2023/07/08 06:18:04;;;;;;;23.65;6.75;;;;;;;24.07;62.75;100444.97;5110026;28;20022;-83
2023/07/08 06:20:30;;;;;;;19.33;6.18;;;;;;;23.98;62.53;100407.78;5109282;28;20127;-82
2023/07/08 06:22:55;;;;;;;17.02;7.05;;;;;;;24.05;62.98;100414.97;5114366;28;20039;-85
2023/07/08 06:25:21;;;;;;;25.38;7.32;;;;;;;24.15;62.59;100420.03;5110093;28;20028;-93
2023/07/08 06:27:47;;;;;;;21.33;6.95;;;;;;;24.19;62.45;100429.50;5054621;28;20047;-93
2023/07/08 06:30:12;;;;;;;19.20;6.45;;;;;;;24.26;61.38;100422.09;5042596;28;20133;-93
2023/07/08 06:32:39;;;;;;;33.33;7.28;;;;;;;24.33;61.21;100431.16;5040597;28;20033;-95
2023/07/08 06:35:05;;;;;;;21.17;6.05;;;;;;;24.25;61.11;100415.75;5044325;28;20108;-91
2023/07/08 06:37:30;;;;;;;18.88;5.75;;;;;;;24.31;60.83;100408.56;5042070;28;20017;-90
2023/07/08 06:39:56;;;;;;;14.27;5.85;;;;;;;24.36;60.65;100400.47;5044198;28;20057;-86
2023/07/08 06:42:21;;;;;;;12.75;5.90;;;;;;;24.55;60.98;100424.28;5033654;28;20454;-87
2023/07/08 06:44:50;;;;;;;15.00;6.10;;;;;;;24.53;60.92;100398.88;5029611;28;20048;-90
2023/07/08 06:47:20;;;;;;;13.52;6.30;;;;;;;24.70;59.99;100421.22;5029881;28;20171;-90
2023/07/08 06:49:46;;;;;;;18.65;6.45;;;;;;;24.73;59.92;100421.63;5029115;28;20042;-89
2023/07/08 06:52:12;;;;;;;16.65;6.38;;;;;;;24.74;59.92;100414.19;5029600;28;20041;-89
2023/07/08 06:54:37;;;;;;;23.00;6.85;;;;;;;24.75;59.23;100404.88;5012102;28;20037;-92
2023/07/08 06:57:03;;;;;;;14.95;6.78;;;;;;;24.77;59.35;100422.84;5028863;28;20045;-89
2023/07/08 06:59:29;;;;;;;18.02;6.90;;;;;;;24.83;59.23;100397.22;5046602;28;20037;-80
2023/07/08 07:01:54;;;;;;;10.52;6.15;;;;;;;24.86;59.50;100423.47;5048894;28;20029;-89
2023/07/08 07:04:20;;;;;;;18.60;6.60;;;;;;;24.96;59.77;100445.81;5047282;28;20029;-86
2023/07/08 07:06:45;;;;;;;20.88;6.28;;;;;;;25.04;59.25;100436.47;5050657;28;20029;-90
2023/07/08 07:09:11;;;;;;;15.95;6.80;;;;;;;25.10;58.86;100435.56;5064884;28;20047;-89
2023/07/08 07:11:36;;;;;;;21.15;6.75;;;;;;;25.15;59.01;100455.00;5093937;28;20021;-92
2023/07/08 07:14:02;;;;;;;15.32;6.25;;;;;;;25.11;59.21;100459.25;5092156;28;20024;-91
2023/07/08 07:16:28;;;;;;;14.90;6.70;;;;;;;24.99;59.08;100453.63;5091238;28;20036;-92
2023/07/08 07:18:53;;;;;;;29.52;10.30;;;;;;;25.04;59.26;100452.97;5091808;28;20028;-91
2023/07/08 07:21:19;;;;;;;10.57;6.45;;;;;;;25.08;59.61;100463.28;5092922;28;20032;-91
2023/07/08 07:23:44;;;;;;;21.20;8.13;;;;;;;25.18;59.90;100471.06;5073553;28;20036;-90
2023/07/08 07:26:10;;;;;;;14.98;6.72;;;;;;;25.22;59.71;100459.41;5093494;28;20411;-90
2023/07/08 07:28:35;;;;;;;20.60;7.70;;;;;;;25.38;59.39;100471.75;5069937;28;20029;-91
2023/07/08 07:31:01;;;;;;;16.40;6.70;;;;;;;25.45;59.39;100456.84;5093162;28;20039;-91
2023/07/08 07:33:27;;;;;;;18.42;6.80;;;;;;;25.39;59.05;100445.88;5092825;28;20024;-91
2023/07/08 07:35:53;;;;;;;19.30;6.70;;;;;;;25.45;59.21;100454.09;5074024;28;20028;-90
2023/07/08 07:38:18;;;;;;;14.18;7.18;;;;;;;25.46;59.70;100457.69;5091692;28;20076;-91
2023/07/08 07:40:44;;;;;;;19.80;6.15;;;;;;;25.51;59.62;100468.06;5088489;28;20116;-92
2023/07/08 07:43:10;;;;;;;18.92;7.72;;;;;;;25.29;59.74;100451.06;5093654;28;20487;-90
2023/07/08 07:45:36;;;;;;;24.58;5.88;;;;;;;25.23;59.98;100462.97;5115712;28;20043;-91
2023/07/08 07:48:02;;;;;;;12.57;5.75;;;;;;;25.12;59.43;100456.28;5096963;28;20060;-92
2023/07/08 07:50:30;;;;;;;22.15;6.75;;;;;;;25.12;58.06;100461.78;5112639;28;20515;-87
2023/07/08 07:52:55;;;;;;;24.45;6.13;;;;;;;25.18;57.11;100471.06;5112672;28;20077;-86
2023/07/08 07:55:20;;;;;;;15.23;5.95;;;;;;;25.10;57.01;100457.59;5113459;28;20448;-90
2023/07/08 07:57:46;;;;;;;16.58;5.85;;;;;;;25.05;56.69;100454.63;5113210;28;20484;-87
2023/07/08 08:00:13;;;;;;;32.83;7.50;;;;;;;24.90;56.58;100453.06;5113145;28;20452;-91
2023/07/08 08:02:40;;;;;;;13.00;5.32;;;;;;;24.83;56.61;100441.25;5095784;28;20035;-86
2023/07/08 08:05:05;;;;;;;12.02;5.35;;;;;;;24.95;56.98;100470.81;5113450;28;20027;-89
2023/07/08 08:07:31;;;;;;;12.80;5.20;;;;;;;24.84;57.16;100451.19;5115219;28;20030;-90
2023/07/08 08:09:56;;;;;;;21.58;5.30;;;;;;;24.92;57.14;100456.41;5124383;28;20111;-92
2023/07/08 08:12:24;;;;;;;23.20;5.20;;;;;;;25.11;57.01;100465.59;5098885;28;20031;-95
2023/07/08 08:14:50;;;;;;;16.05;4.80;;;;;;;25.22;56.69;100483.31;5101017;28;20133;-94
2023/07/08 08:17:16;;;;;;;11.82;6.20;;;;;;;25.18;56.52;100443.53;5097794;28;20055;-84
2023/07/08 08:19:41;;;;;;;9.15;5.43;;;;;;;25.29;56.38;100462.06;5112738;28;20028;-90
2023/07/08 08:22:07;;;;;;;11.88;4.90;;;;;;;25.47;56.21;100470.41;5092773;28;20744;-82
2023/07/08 08:24:33;;;;;;;12.25;4.93;;;;;;;25.51;56.11;100471.66;5113504;28;20038;-87
2023/07/08 08:26:59;;;;;;;14.50;5.18;;;;;;;25.46;56.26;100463.19;5111838;28;20020;-88
2023/07/08 08:29:25;;;;;;;12.65;5.28;;;;;;;25.60;55.89;100469.44;5111018;28;20484;-87
2023/07/08 08:31:50;;;;;;;17.10;6.65;;;;;;;25.71;55.62;100483.34;5111395;28;20024;-87
2023/07/08 08:34:16;;;;;;;14.25;5.57;;;;;;;25.75;55.38;100473.53;5111623;28;20085;-89
2023/07/08 08:36:42;;;;;;;10.48;4.60;;;;;;;25.86;55.13;100488.50;5110944;28;20097;-83
2023/07/08 08:39:08;;;;;;;8.50;4.78;;;;;;;26.09;55.08;100504.34;5111022;28;20063;-86
2023/07/08 08:41:35;;;;;;;10.20;5.70;;;;;;;26.18;54.43;100509.38;5112843;28;20045;-83
2023/07/08 08:44:04;;;;;;;28.70;6.38;;;;;;;26.26;54.26;100499.97;5111022;28;20023;-79
2023/07/08 08:46:37;;;;;;;9.68;5.68;;;;;;;26.39;54.05;100506.13;5110687;28;20555;-83
2023/07/08 08:49:32;;;;;;;8.00;4.35;;;;;;;26.43;53.39;100495.50;5115568;28;20027;-82
2023/07/08 08:51:58;;;;;;;8.07;4.50;;;;;;;26.50;53.22;100510.06;5117683;28;20036;-79
2023/07/08 08:54:25;;;;;;;13.10;4.28;;;;;;;26.54;53.30;100510.44;5110077;28;20100;-82
2023/07/08 08:57:05;;;;;;;6.03;4.57;;;;;;;26.62;52.89;100523.91;5109654;28;20023;-80
2023/07/08 08:59:43;;;;;;;10.25;4.78;;;;;;;26.60;52.77;100515.88;5110211;28;20020;-81
2023/07/08 09:02:27;;;;;;;6.30;4.47;;;;;;;26.63;52.23;100515.41;5091905;28;20469;-79
2023/07/08 09:04:52;;;;;;;13.38;5.38;;;;;;;26.55;52.27;100523.97;5111002;28;20028;-77
2023/07/08 09:07:20;;;;;;;22.65;5.55;;;;;;;26.52;51.61;100510.66;5110308;28;20028;-84
2023/07/08 09:09:48;;;;;;;7.20;3.67;;;;;;;26.63;51.36;100517.31;5110878;28;20028;-79
2023/07/08 09:12:20;;;;;;;12.98;4.05;;;;;;;26.61;50.90;100520.31;5110655;28;20024;-83
2023/07/08 09:14:46;;;;;;;8.43;4.35;;;;;;;26.63;51.32;100520.94;5121047;28;20019;-82
2023/07/08 09:17:33;;;;;;;6.38;3.97;;;;;;;26.58;50.68;100515.25;5117390;28;20036;-84
2023/07/08 09:20:28;;;;;;;10.10;3.95;;;;;;;26.53;50.72;100531.66;5110478;28;20027;-82
2023/07/08 09:22:59;;;;;;;11.73;3.67;;;;;;;26.61;50.89;100523.06;5110440;28;20164;-82
2023/07/08 09:25:35;;;;;;;20.75;5.25;;;;;;;26.72;50.62;100525.06;5110331;28;20039;-81
2023/07/08 09:28:01;;;;;;;14.77;4.55;;;;;;;26.79;50.07;100517.50;5109883;28;20514;-83
2023/07/08 09:30:30;;;;;;;18.23;5.25;;;;;;;26.68;50.18;100521.06;5109822;28;20020;-80
2023/07/08 09:32:56;;;;;;;12.25;4.93;;;;;;;26.64;50.57;100510.72;5110232;28;20036;-81
2023/07/08 09:35:29;;;;;;;12.15;5.15;;;;;;;26.73;50.61;100521.19;5111011;28;20019;-81
2023/07/08 09:37:55;;;;;;;23.38;5.82;;;;;;;26.68;50.55;100522.97;5113362;28;20103;-81
2023/07/08 09:40:22;;;;;;;22.77;8.57;;;;;;;26.68;51.07;100523.81;5121715;28;20052;-81
2023/07/08 09:42:54;;;;;;;12.38;4.15;;;;;;;26.65;50.96;100515.16;5124642;28;20024;-85
2023/07/08 09:45:21;;;;;;;;;;;;;;;26.66;50.42;100537.03;5124204;28;20053;-79
2023/07/08 09:47:47;;;;;;;8.63;4.50;;;;;;;26.52;50.42;100513.41;5114328;28;19951;-80
2023/07/08 09:50:20;;;;;;;14.30;4.82;;;;;;;26.62;50.50;100518.38;5110939;28;20062;-82
2023/07/08 09:52:47;;;;;;;14.90;4.00;;;;;;;26.72;50.14;100515.94;5111817;28;20131;-81
2023/07/08 09:55:13;;;;;;;14.45;4.68;;;;;;;26.84;49.56;100517.69;5111600;28;20030;-80
2023/07/08 09:57:40;;;;;;;15.73;4.50;;;;;;;26.90;49.37;100525.03;5110083;28;20027;-82
2023/07/08 10:00:13;;;;;;;15.65;4.55;;;;;;;26.71;49.03;100501.28;5110157;28;20034;-80
2023/07/08 10:02:58;;;;;;;17.15;4.88;;;;;;;26.76;49.24;100541.97;5109578;28;20038;-81
2023/07/08 10:05:40;;;;;;;8.13;4.47;;;;;;;26.77;49.81;100535.38;5108997;28;20024;-83
2023/07/08 10:08:16;;;;;;;9.20;4.32;;;;;;;26.76;49.31;100545.56;5109433;28;20043;-89
2023/07/08 10:10:43;;;;;;;9.98;5.28;;;;;;;26.69;49.52;100544.84;5113028;28;20046;-88
2023/07/08 10:13:21;;;;;;;17.80;5.97;;;;;;;26.59;49.37;100525.22;5113055;28;20061;-86
2023/07/08 10:15:51;;;;;;;16.70;4.55;;;;;;;26.65;48.78;100535.31;5093739;28;20028;-86
2023/07/08 10:18:25;;;;;;;12.25;4.68;;;;;;;26.72;49.20;100546.28;5092905;28;20419;-86
2023/07/08 10:21:06;;;;;;;20.40;5.60;;;;;;;26.72;48.93;100530.56;5091139;28;20028;-79
2023/07/08 10:23:49;;;;;;;9.65;4.80;;;;;;;26.77;48.32;100550.03;5110005;28;20106;-81
2023/07/08 10:26:27;;;;;;;15.82;6.05;;;;;;;26.71;48.76;100553.72;5109634;28;20567;-80
2023/07/08 10:29:09;;;;;;;23.17;5.47;;;;;;;26.68;48.74;100559.69;5110993;28;20088;-79
2023/07/08 10:31:51;;;;;;;29.98;6.53;;;;;;;26.63;48.95;100562.31;5110547;28;20463;-81
2023/07/08 10:34:16;;;;;;;22.90;5.20;;;;;;;26.73;49.03;100562.59;5109742;28;20402;-80
2023/07/08 10:37:14;;;;;;;20.27;5.53;;;;;;;26.72;49.18;100566.44;5108378;28;20054;-80
2023/07/08 10:39:57;;;;;;;21.67;5.97;;;;;;;26.77;49.22;100550.03;5089019;28;20076;-80
2023/07/08 10:42:39;;;;;;;22.40;6.18;;;;;;;26.79;49.41;100564.41;5089267;28;20043;-80
2023/07/08 10:45:25;;;;;;;;;;;;;;;26.69;49.12;100553.13;5094321;28;20087;-75
2023/07/08 10:47:54;;;;;;;16.08;6.65;;;;;;;26.52;49.67;100550.13;5069145;28;20354;-79
2023/07/08 10:51:03;;;;;;;10.57;4.45;;;;;;;26.48;49.69;100543.38;5106869;27;20031;-81
2023/07/08 10:53:54;;;;;;;6.65;4.97;;;;;;;26.41;50.12;100533.50;5045747;28;20523;-78
2023/07/08 10:56:47;;;;;;;15.65;5.78;;;;;;;26.40;50.31;100537.31;5047457;28;20028;-78
2023/07/08 10:59:23;;;;;;;10.23;4.93;;;;;;;26.50;49.89;100537.63;5033197;28;20641;-82
2023/07/08 11:01:51;;;;;;;8.57;3.83;;;;;;;26.60;49.57;100520.53;5049837;28;20031;-76
2023/07/08 11:04:32;;;;;;;12.00;6.00;;;;;;;26.66;49.51;100525.97;5053450;28;20076;-83
2023/07/08 11:07:05;;;;;;;9.32;4.38;;;;;;;26.64;49.65;100532.78;5054298;28;20032;-79
2023/07/08 11:09:42;;;;;;;16.33;5.50;;;;;;;26.62;50.01;100541.31;5064645;28;20044;-78
2023/07/08 11:12:26;;;;;;;27.95;4.82;;;;;;;26.53;49.25;100550.97;5064125;28;20484;-79
2023/07/08 11:15:22;;;;;;;14.75;4.63;;;;;;;26.43;50.07;100550.66;5064184;28;20045;-79
2023/07/08 11:18:03;;;;;;;16.70;3.72;;;;;;;26.48;49.91;100550.81;5024043;28;20033;-79
2023/07/08 11:20:47;;;;;;;15.20;2.95;;;;;;;26.46;49.52;100530.88;5028011;28;20041;-77
2023/07/08 11:23:36;;;;;;;30.63;4.88;;;;;;;26.54;49.57;100533.34;5009458;28;20037;-78
2023/07/08 11:26:14;;;;;;;21.02;4.80;;;;;;;26.43;49.59;100542.38;5044975;28;20455;-81